createdAt,value
2023-02-05T00:00:56.458Z,2.32
2023-02-05T00:03:24.057Z,1.82
2023-02-05T00:05:51.242Z,2.14
2023-02-05T00:08:18.430Z,2.06
2023-02-05T00:10:51.143Z,1.99
2023-02-05T00:13:18.290Z,2.18
2023-02-05T00:15:45.719Z,1.98
2023-02-05T00:18:12.954Z,2.37
2023-02-05T00:20:40.141Z,2.80
2023-02-05T00:23:07.610Z,1.92
2023-02-05T00:25:35.084Z,1.84
2023-02-05T00:28:02.520Z,2.13
2023-02-05T00:30:30.256Z,2.24
2023-02-05T00:32:57.470Z,2.16
2023-02-05T00:35:24.624Z,2.37
2023-02-05T00:37:52.114Z,2.25
2023-02-05T00:40:19.317Z,2.30
2023-02-05T00:42:46.473Z,3.12
2023-02-05T00:45:13.934Z,2.40
2023-02-05T00:47:41.108Z,2.29
2023-02-05T00:50:08.412Z,2.19
2023-02-05T00:52:35.930Z,1.82
2023-02-05T00:55:03.148Z,2.67
2023-02-05T00:57:30.307Z,2.77
2023-02-05T00:59:57.758Z,3.20
2023-02-05T01:02:25.400Z,3.02
2023-02-05T01:04:52.648Z,2.78
2023-02-05T01:07:20.382Z,3.67
2023-02-05T01:09:48.765Z,3.54
2023-02-05T01:12:15.893Z,3.62
2023-02-05T01:14:43.370Z,3.73
2023-02-05T01:17:10.525Z,3.91
2023-02-05T01:19:37.693Z,3.62
2023-02-05T01:22:05.418Z,3.28
2023-02-05T01:24:33.042Z,3.81
2023-02-05T01:27:00.255Z,4.34
2023-02-05T01:29:29.342Z,4.48
2023-02-05T01:31:56.759Z,3.79
2023-02-05T01:34:23.936Z,4.54
2023-02-05T01:36:51.443Z,4.05
2023-02-05T01:39:18.622Z,4.40
2023-02-05T01:41:46.577Z,4.22
2023-02-05T01:44:18.625Z,4.26
2023-02-05T01:46:46.474Z,4.32
2023-02-05T01:49:24.187Z,4.29
2023-02-05T01:51:53.172Z,3.97
2023-02-05T01:54:20.753Z,4.45
2023-02-05T01:56:52.324Z,4.15
2023-02-05T01:59:21.804Z,3.52
2023-02-05T02:01:49.294Z,3.43
2023-02-05T02:04:19.008Z,3.25
2023-02-05T02:06:46.311Z,3.77
2023-02-05T02:09:13.521Z,3.52
2023-02-05T02:11:41.421Z,3.84
2023-02-05T02:14:08.694Z,4.98
2023-02-05T02:16:37.381Z,4.69
2023-02-05T02:19:05.370Z,4.94
2023-02-05T02:21:35.973Z,4.72
2023-02-05T02:24:09.247Z,5.70
2023-02-05T02:26:55.379Z,4.98
2023-02-05T02:29:32.661Z,5.72
2023-02-05T02:32:00.837Z,4.82
2023-02-05T02:34:33.209Z,4.54
2023-02-05T02:37:07.717Z,4.16
2023-02-05T02:39:35.116Z,4.77
2023-02-05T02:42:06.517Z,4.63
2023-02-05T02:44:35.024Z,4.09
2023-02-05T02:47:04.165Z,4.31
2023-02-05T02:49:33.024Z,4.53
2023-02-05T02:52:00.685Z,3.97
2023-02-05T02:54:28.092Z,4.23
2023-02-05T02:56:55.519Z,3.90
2023-02-05T02:59:26.067Z,3.91
2023-02-05T03:01:55.163Z,4.23
2023-02-05T03:04:29.664Z,4.79
2023-02-05T03:06:59.876Z,5.00
2023-02-05T03:09:30.486Z,4.76
2023-02-05T03:11:58.147Z,4.79
2023-02-05T03:14:25.516Z,4.89
2023-02-05T03:16:52.982Z,5.14
2023-02-05T03:19:20.539Z,4.71
2023-02-05T03:21:48.434Z,5.25
2023-02-05T03:24:15.644Z,4.97
2023-02-05T03:26:43.186Z,5.65
2023-02-05T03:29:13.438Z,5.07
2023-02-05T03:31:40.819Z,5.68
2023-02-05T03:34:17.126Z,5.53
2023-02-05T03:36:49.232Z,5.56
2023-02-05T03:39:31.384Z,5.53
2023-02-05T03:42:21.850Z,5.98
2023-02-05T03:44:52.212Z,5.79
2023-02-05T03:47:19.477Z,5.57
2023-02-05T03:50:08.792Z,6.00
2023-02-05T03:52:38.253Z,6.44
2023-02-05T03:55:09.557Z,6.32
2023-02-05T03:57:42.753Z,6.32
2023-02-05T04:00:11.179Z,6.07
2023-02-05T04:02:41.159Z,6.13
2023-02-05T04:05:09.124Z,6.55
2023-02-05T04:07:36.501Z,6.11
2023-02-05T04:10:04.586Z,6.42
2023-02-05T04:12:32.205Z,6.73
2023-02-05T04:14:59.451Z,6.30
2023-02-05T04:17:26.653Z,6.35
2023-02-05T04:19:54.134Z,6.64
2023-02-05T04:22:21.434Z,6.70
2023-02-05T04:24:48.710Z,6.34
2023-02-05T04:27:17.013Z,5.92
2023-02-05T04:29:44.262Z,6.41
2023-02-05T04:32:11.434Z,6.70
2023-02-05T04:34:38.888Z,6.62
2023-02-05T04:37:06.877Z,6.49
2023-02-05T04:39:34.095Z,6.62
2023-02-05T04:42:01.901Z,6.79
2023-02-05T04:44:29.104Z,6.92
2023-02-05T04:46:56.256Z,6.97
2023-02-05T04:49:23.678Z,6.52
2023-02-05T04:51:50.888Z,6.42
2023-02-05T04:54:18.053Z,6.24
2023-02-05T04:56:46.882Z,6.11
2023-02-05T04:59:14.149Z,5.47
2023-02-05T05:01:41.344Z,5.50
2023-02-05T05:04:09.061Z,6.11
2023-02-05T05:06:36.211Z,5.61
2023-02-05T05:09:03.562Z,5.48
2023-02-05T05:11:31.046Z,5.98
2023-02-05T05:13:58.159Z,6.24
2023-02-05T05:16:25.318Z,5.96
2023-02-05T05:18:52.790Z,6.28
2023-02-05T05:21:19.938Z,6.23
2023-02-05T05:23:47.169Z,5.59
2023-02-05T05:26:14.598Z,6.37
2023-02-05T05:28:41.743Z,6.65
2023-02-05T05:31:10.117Z,6.84
2023-02-05T05:33:37.852Z,6.84
2023-02-05T05:36:05.659Z,7.14
2023-02-05T05:38:32.855Z,7.08
2023-02-05T05:41:18.809Z,6.83
2023-02-05T05:43:49.034Z,6.30
2023-02-05T05:46:22.065Z,6.79
2023-02-05T05:48:50.129Z,6.34
2023-02-05T05:51:17.802Z,6.92
2023-02-05T05:53:45.238Z,7.03
2023-02-05T05:56:12.611Z,6.85
2023-02-05T05:58:40.308Z,6.64
2023-02-05T06:01:07.469Z,6.70
2023-02-05T06:03:35.145Z,6.79
2023-02-05T06:06:03.669Z,7.02
2023-02-05T06:08:30.935Z,6.84
2023-02-05T06:10:58.585Z,7.12
2023-02-05T06:13:26.102Z,7.03
2023-02-05T06:15:54.848Z,6.94
2023-02-05T06:18:23.790Z,6.92
2023-02-05T06:20:51.165Z,7.02
2023-02-05T06:23:18.331Z,7.14
2023-02-05T06:25:45.804Z,6.86
2023-02-05T06:28:13.016Z,7.02
2023-02-05T06:30:40.232Z,6.38
2023-02-05T06:33:07.742Z,6.05
2023-02-05T06:35:35.210Z,6.27
2023-02-05T06:38:02.579Z,6.24
2023-02-05T06:40:30.102Z,6.01
2023-02-05T06:42:57.247Z,5.44
2023-02-05T06:45:24.393Z,6.24
2023-02-05T06:47:56.109Z,6.15
2023-02-05T06:50:23.628Z,6.54
2023-02-05T06:52:51.284Z,6.29
2023-02-05T06:55:18.785Z,6.11
2023-02-05T06:57:45.939Z,6.87
2023-02-05T07:00:13.509Z,6.16
2023-02-05T07:02:41.102Z,5.97
2023-02-05T07:05:08.672Z,6.17
2023-02-05T07:07:35.981Z,6.15
2023-02-05T07:10:03.565Z,6.46
2023-02-05T07:12:30.762Z,6.25
2023-02-05T07:14:57.909Z,6.01
2023-02-05T07:17:25.607Z,6.32
2023-02-05T07:19:53.211Z,6.32
2023-02-05T07:22:20.394Z,6.80
2023-02-05T07:24:47.906Z,6.44
2023-02-05T07:27:15.100Z,6.40
2023-02-05T07:29:42.267Z,6.79
2023-02-05T07:32:09.792Z,6.99
2023-02-05T07:34:36.990Z,7.18
2023-02-05T07:37:04.865Z,7.43
2023-02-05T07:39:33.485Z,7.78
2023-02-05T07:42:01.093Z,8.83
2023-02-05T07:44:28.582Z,10.53
2023-02-05T07:46:56.294Z,11.15
2023-02-05T07:49:23.467Z,12.07
2023-02-05T07:51:50.585Z,11.61
2023-02-05T07:54:18.150Z,10.91
2023-02-05T07:56:45.415Z,11.47
2023-02-05T07:59:12.753Z,11.28
2023-02-05T08:01:40.255Z,11.31
2023-02-05T08:04:07.686Z,10.83
2023-02-05T08:06:35.072Z,10.80
2023-02-05T08:09:02.375Z,10.62
2023-02-05T08:11:32.266Z,10.63
2023-02-05T08:14:00.662Z,10.89
2023-02-05T08:16:27.865Z,10.94
2023-02-05T08:18:55.310Z,10.39
2023-02-05T08:21:22.621Z,10.54
2023-02-05T08:23:49.850Z,10.59
2023-02-05T08:26:17.656Z,11.82
2023-02-05T08:28:45.970Z,11.70
2023-02-05T08:31:14.331Z,11.93
2023-02-05T08:33:41.874Z,11.39
2023-02-05T08:36:09.511Z,11.18
2023-02-05T08:38:36.671Z,10.71
2023-02-05T08:41:12.990Z,10.06
2023-02-05T08:43:44.422Z,9.83
2023-02-05T08:46:12.430Z,9.06
2023-02-05T08:48:39.818Z,8.89
2023-02-05T08:51:08.872Z,9.55
2023-02-05T08:53:36.359Z,9.00
2023-02-05T08:56:03.868Z,9.01
2023-02-05T08:58:31.063Z,8.01
2023-02-05T09:01:02.536Z,8.04
2023-02-05T09:03:30.629Z,8.31
2023-02-05T09:05:58.478Z,8.59
2023-02-05T09:08:27.331Z,9.68
2023-02-05T09:10:54.508Z,9.65
2023-02-05T09:13:21.687Z,9.68
2023-02-05T09:15:49.200Z,9.07
2023-02-05T09:18:16.708Z,8.71
2023-02-05T09:20:44.611Z,8.37
2023-02-05T09:23:12.464Z,8.33
2023-02-05T09:25:40.060Z,8.84
2023-02-05T09:28:09.400Z,8.90
2023-02-05T09:30:37.584Z,8.31
2023-02-05T09:33:04.938Z,8.96
2023-02-05T09:35:32.879Z,8.87
2023-02-05T09:38:02.334Z,8.75
2023-02-05T09:40:30.344Z,8.98
2023-02-05T09:42:57.581Z,8.64
2023-02-05T09:45:43.989Z,8.52
2023-02-05T09:48:22.744Z,8.53
2023-02-05T09:50:50.149Z,8.84
2023-02-05T09:53:19.054Z,9.16
2023-02-05T09:55:46.677Z,9.61
2023-02-05T09:58:18.058Z,9.80
2023-02-05T10:00:46.474Z,9.54
2023-02-05T10:03:13.828Z,9.76
2023-02-05T10:05:43.869Z,9.90
2023-02-05T10:08:17.810Z,10.52
2023-02-05T10:10:46.153Z,10.57
2023-02-05T10:13:18.980Z,10.87
2023-02-05T10:16:05.163Z,10.32
2023-02-05T10:18:51.349Z,10.32
2023-02-05T10:21:37.414Z,10.11
2023-02-05T10:24:07.702Z,9.13
2023-02-05T10:26:37.934Z,6.90
2023-02-05T10:29:12.789Z,7.34
2023-02-05T10:31:43.594Z,8.10
2023-02-05T10:34:16.728Z,8.03
2023-02-05T10:36:44.606Z,8.18
2023-02-05T10:39:13.487Z,8.46
2023-02-05T10:41:43.329Z,8.37
2023-02-05T10:44:15.111Z,8.01
2023-02-05T10:46:44.227Z,7.83
2023-02-05T10:49:34.953Z,8.81
2023-02-05T10:52:02.088Z,9.03
2023-02-05T10:54:30.518Z,9.23
2023-02-05T10:57:01.130Z,9.03
2023-02-05T10:59:29.321Z,9.30
2023-02-05T11:01:58.099Z,9.36
2023-02-05T11:04:28.569Z,9.03
2023-02-05T11:06:55.749Z,9.00
2023-02-05T11:09:26.275Z,9.40
2023-02-05T11:11:53.923Z,9.35
2023-02-05T11:14:22.586Z,9.73
2023-02-05T11:16:50.084Z,9.65
2023-02-05T11:19:24.447Z,9.48
2023-02-05T11:21:56.102Z,9.70
2023-02-05T11:24:23.304Z,8.97
2023-02-05T11:26:50.679Z,9.01
2023-02-05T11:29:21.451Z,8.76
2023-02-05T11:31:48.718Z,9.01
2023-02-05T11:34:16.824Z,8.87
2023-02-05T11:36:48.293Z,9.38
2023-02-05T11:39:36.411Z,9.78
2023-02-05T11:42:20.455Z,10.10
2023-02-05T11:44:48.726Z,9.19
2023-02-05T11:47:19.681Z,8.57
2023-02-05T11:49:49.384Z,8.65
2023-02-05T11:52:16.829Z,8.55
2023-02-05T11:54:45.974Z,7.94
2023-02-05T11:57:13.320Z,9.01
2023-02-05T11:59:40.901Z,9.28
2023-02-05T12:02:20.765Z,9.05
2023-02-05T12:04:49.478Z,9.01
2023-02-05T12:07:16.758Z,9.24
2023-02-05T12:09:44.002Z,9.37
2023-02-05T12:12:23.508Z,8.90
2023-02-05T12:14:53.645Z,9.06
2023-02-05T12:17:29.959Z,8.93
2023-02-05T12:20:00.228Z,9.13
2023-02-05T12:22:35.188Z,8.54
2023-02-05T12:25:02.297Z,8.00
2023-02-05T12:27:32.835Z,8.15
2023-02-05T12:29:59.896Z,7.98
2023-02-05T12:32:27.564Z,7.99
2023-02-05T12:35:10.164Z,8.32
2023-02-05T12:37:55.817Z,7.85
2023-02-05T12:40:41.941Z,8.50
2023-02-05T12:43:21.819Z,7.64
2023-02-05T12:45:55.412Z,8.50
2023-02-05T12:48:27.918Z,8.14
2023-02-05T12:50:55.335Z,8.15
2023-02-05T12:53:22.420Z,8.51
2023-02-05T12:55:53.191Z,8.28
2023-02-05T12:58:20.628Z,8.33
2023-02-05T13:00:52.042Z,7.74
2023-02-05T13:03:30.439Z,7.75
2023-02-05T13:06:02.273Z,7.85
2023-02-05T13:08:29.554Z,8.50
2023-02-05T13:10:57.919Z,8.45
2023-02-05T13:13:27.069Z,8.30
2023-02-05T13:16:05.838Z,8.00
2023-02-05T13:18:34.503Z,8.37
2023-02-05T13:21:26.914Z,7.99
2023-02-05T13:24:15.679Z,7.64
2023-02-05T13:27:03.154Z,8.33
2023-02-05T13:29:32.201Z,7.88
2023-02-05T13:32:14.692Z,7.98
2023-02-05T13:34:43.251Z,8.72
2023-02-05T13:37:25.975Z,8.58
2023-02-05T13:40:12.650Z,8.39
2023-02-05T13:42:45.962Z,8.55
2023-02-05T13:45:31.950Z,8.48
2023-02-05T13:48:05.202Z,8.67
2023-02-05T13:50:44.558Z,7.84
2023-02-05T13:53:20.767Z,7.85
2023-02-05T13:56:04.605Z,8.08
2023-02-05T13:58:34.416Z,8.15
2023-02-05T14:01:06.034Z,8.68
2023-02-05T14:03:35.348Z,7.96
2023-02-05T14:06:31.883Z,8.06
2023-02-05T14:09:03.944Z,8.55
2023-02-05T14:11:49.873Z,8.07
2023-02-05T14:14:17.409Z,8.72
2023-02-05T14:16:46.392Z,8.49
2023-02-05T14:19:15.920Z,8.07
2023-02-05T14:21:46.367Z,7.92
2023-02-05T14:24:27.635Z,7.99
2023-02-05T14:26:57.532Z,8.47
2023-02-05T14:29:42.149Z,8.39
2023-02-05T14:32:29.947Z,8.10
2023-02-05T14:35:16.052Z,7.74
2023-02-05T14:37:44.013Z,7.86
2023-02-05T14:40:26.833Z,8.09
2023-02-05T14:43:08.377Z,8.15
2023-02-05T14:45:37.586Z,8.48
2023-02-05T14:48:05.187Z,8.73
2023-02-05T14:50:32.556Z,8.91
2023-02-05T14:53:00.912Z,8.27
2023-02-05T14:55:30.010Z,8.44
2023-02-05T14:58:04.328Z,8.41
2023-02-05T15:00:35.022Z,8.78
2023-02-05T15:03:07.633Z,8.14
2023-02-05T15:05:38.123Z,7.64
2023-02-05T15:08:08.910Z,7.89
2023-02-05T15:10:37.600Z,8.01
2023-02-05T15:13:12.339Z,8.66
2023-02-05T15:15:39.988Z,8.05
2023-02-05T15:18:16.444Z,8.24
2023-02-05T15:20:47.086Z,8.65
2023-02-05T15:23:17.940Z,7.98
2023-02-05T15:25:46.618Z,7.79
2023-02-05T15:28:34.149Z,8.39
2023-02-05T15:31:09.473Z,8.33
2023-02-05T15:33:42.562Z,8.05
2023-02-05T15:36:18.656Z,8.60
2023-02-05T15:38:48.073Z,7.93
2023-02-05T15:41:15.840Z,8.20
2023-02-05T15:43:56.655Z,8.25
2023-02-05T15:46:24.148Z,8.53
2023-02-05T15:48:51.461Z,8.57
2023-02-05T15:51:22.646Z,8.43
2023-02-05T15:53:50.398Z,8.30
2023-02-05T15:56:20.682Z,8.09
2023-02-05T15:58:52.654Z,8.47
2023-02-05T16:01:29.599Z,8.67
2023-02-05T16:03:57.325Z,8.58
2023-02-05T16:06:26.784Z,8.59
2023-02-05T16:08:54.131Z,8.64
2023-02-05T16:11:31.819Z,8.41
2023-02-05T16:14:03.031Z,8.73
2023-02-05T16:16:31.590Z,8.95
2023-02-05T16:18:59.390Z,8.84
2023-02-05T16:21:33.514Z,8.38
2023-02-05T16:24:02.581Z,8.55
2023-02-05T16:26:31.610Z,8.85
2023-02-05T16:29:00.373Z,8.85
2023-02-05T16:31:30.525Z,8.80
2023-02-05T16:34:00.686Z,8.83
2023-02-05T16:36:30.030Z,8.57
2023-02-05T16:38:58.795Z,8.61
2023-02-05T16:41:26.910Z,8.47
2023-02-05T16:43:55.490Z,8.56
2023-02-05T16:46:24.173Z,8.63
2023-02-05T16:48:52.453Z,8.61
2023-02-05T16:51:33.440Z,8.65
2023-02-05T16:54:01.421Z,8.62
2023-02-05T16:56:33.093Z,8.68
2023-02-05T16:59:00.991Z,8.60
2023-02-05T17:01:29.610Z,8.44
2023-02-05T17:03:57.127Z,8.37
2023-02-05T17:06:26.235Z,8.30
2023-02-05T17:08:55.265Z,8.43
2023-02-05T17:11:31.824Z,8.43
2023-02-05T17:14:18.471Z,8.39
2023-02-05T17:16:47.077Z,8.25
2023-02-05T17:19:31.524Z,8.28
2023-02-05T17:22:14.054Z,8.30
2023-02-05T17:24:42.060Z,8.27
2023-02-05T17:27:29.603Z,8.21
2023-02-05T17:29:57.903Z,8.08
2023-02-05T17:32:25.325Z,7.86
2023-02-05T17:34:52.702Z,7.98
2023-02-05T17:37:20.211Z,8.05
2023-02-05T17:39:47.599Z,7.91
2023-02-05T17:42:19.666Z,7.74
2023-02-05T17:44:47.490Z,7.36
2023-02-05T17:47:14.977Z,7.64
2023-02-05T17:49:42.505Z,7.66
2023-02-05T17:52:10.217Z,7.53
2023-02-05T17:54:37.511Z,7.68
2023-02-05T17:57:14.504Z,7.68
2023-02-05T17:59:44.809Z,7.53
2023-02-05T18:02:13.432Z,7.22
2023-02-05T18:04:41.442Z,7.51
2023-02-05T18:07:24.140Z,7.46
2023-02-05T18:09:51.785Z,7.42
2023-02-05T18:12:19.148Z,7.34
2023-02-05T18:14:46.568Z,7.29
2023-02-05T18:17:14.179Z,7.27
2023-02-05T18:19:41.509Z,7.18
2023-02-05T18:22:09.209Z,7.16
2023-02-05T18:24:39.917Z,7.06
2023-02-05T18:27:11.226Z,7.06
2023-02-05T18:29:38.910Z,6.93
2023-02-05T18:32:06.330Z,6.85
2023-02-05T18:34:33.714Z,5.09
2023-02-05T18:37:01.216Z,5.88
2023-02-05T18:39:29.583Z,5.40
2023-02-05T18:41:58.023Z,5.43
2023-02-05T18:44:26.050Z,6.14
2023-02-05T18:46:54.140Z,3.77
2023-02-05T18:49:21.281Z,3.41
2023-02-05T18:51:48.920Z,5.38
2023-02-05T18:54:16.222Z,5.36
2023-02-05T18:56:43.516Z,5.43
2023-02-05T18:59:12.849Z,5.18
2023-02-05T19:01:40.317Z,5.30
2023-02-05T19:04:08.869Z,5.41
2023-02-05T19:06:36.744Z,5.34
2023-02-05T19:09:04.361Z,5.48
2023-02-05T19:11:31.798Z,6.00
2023-02-05T19:14:04.356Z,5.94
2023-02-05T19:16:32.700Z,6.17
2023-02-05T19:19:00.274Z,6.29
2023-02-05T19:21:29.321Z,6.33
2023-02-05T19:23:57.206Z,6.41
2023-02-05T19:26:26.240Z,6.43
2023-02-05T19:28:56.027Z,6.36
2023-02-05T19:31:24.453Z,6.36
2023-02-05T19:33:52.286Z,6.48
2023-02-05T19:36:23.114Z,6.42
2023-02-05T19:38:50.446Z,6.61
2023-02-05T19:41:18.959Z,6.53
2023-02-05T19:43:50.596Z,6.54
2023-02-05T19:46:18.813Z,6.48
2023-02-05T19:48:46.288Z,6.24
2023-02-05T19:51:14.086Z,6.20
2023-02-05T19:53:43.219Z,6.24
2023-02-05T19:56:28.705Z,6.12
2023-02-05T19:58:56.414Z,6.23
2023-02-05T20:01:24.983Z,6.09
2023-02-05T20:03:53.511Z,5.86
2023-02-05T20:06:22.721Z,5.96
2023-02-05T20:08:50.036Z,5.90
2023-02-05T20:11:18.605Z,5.84
2023-02-05T20:13:46.641Z,5.88
2023-02-05T20:16:22.980Z,5.94
2023-02-05T20:18:54.274Z,5.95
2023-02-05T20:21:21.697Z,5.87
2023-02-05T20:23:49.255Z,5.96
2023-02-05T20:26:19.123Z,5.83
2023-02-05T20:29:05.743Z,5.67
2023-02-05T20:31:33.512Z,5.75
2023-02-05T20:34:04.898Z,5.50
2023-02-05T20:36:33.034Z,5.66
2023-02-05T20:39:00.901Z,5.74
2023-02-05T20:41:28.333Z,5.80
2023-02-05T20:43:56.603Z,5.81
2023-02-05T20:46:24.544Z,5.74
2023-02-05T20:48:52.132Z,5.75
2023-02-05T20:51:20.330Z,5.46
2023-02-05T20:53:48.274Z,5.70
2023-02-05T20:56:16.658Z,5.73
2023-02-05T20:58:44.423Z,5.74
2023-02-05T21:01:12.865Z,5.41
2023-02-05T21:03:42.220Z,5.54
2023-02-05T21:06:10.162Z,5.48
2023-02-05T21:08:38.110Z,5.45
2023-02-05T21:11:05.701Z,5.39
2023-02-05T21:13:33.481Z,5.21
2023-02-05T21:16:01.502Z,4.99
2023-02-05T21:18:29.008Z,5.02
2023-02-05T21:21:00.087Z,4.94
2023-02-05T21:23:27.344Z,5.09
2023-02-05T21:25:54.639Z,5.06
2023-02-05T21:28:22.871Z,4.96
2023-02-05T21:30:51.198Z,4.89
2023-02-05T21:33:18.481Z,4.96
2023-02-05T21:35:46.046Z,4.90
2023-02-05T21:38:13.373Z,4.86
2023-02-05T21:40:40.622Z,4.88
2023-02-05T21:43:08.026Z,4.73
2023-02-05T21:45:36.943Z,4.76
2023-02-05T21:48:04.269Z,4.78
2023-02-05T21:50:31.812Z,4.74
2023-02-05T21:52:59.003Z,4.77
2023-02-05T21:55:26.887Z,4.42
2023-02-05T21:57:54.334Z,4.70
2023-02-05T22:00:21.497Z,4.93
2023-02-05T22:02:48.912Z,5.03
2023-02-05T22:05:16.221Z,4.77
2023-02-05T22:07:43.422Z,5.02
2023-02-05T22:10:10.827Z,5.01
2023-02-05T22:12:37.961Z,4.78
2023-02-05T22:15:05.491Z,4.66
2023-02-05T22:17:33.372Z,4.78
2023-02-05T22:20:00.510Z,4.77
2023-02-05T22:22:27.748Z,4.76
2023-02-05T22:24:55.192Z,4.78
2023-02-05T22:27:22.522Z,4.70
2023-02-05T22:29:50.101Z,4.70
2023-02-05T22:32:17.529Z,4.83
2023-02-05T22:34:44.758Z,4.94
2023-02-05T22:37:11.939Z,4.80
2023-02-05T22:39:39.385Z,4.89
2023-02-05T22:42:06.546Z,4.75
2023-02-05T22:44:33.915Z,4.40
2023-02-05T22:47:01.328Z,4.32
2023-02-05T22:49:28.482Z,4.11
2023-02-05T22:51:55.713Z,4.71
2023-02-05T22:54:23.102Z,4.88
2023-02-05T22:56:50.261Z,5.14
2023-02-05T22:59:17.585Z,5.12
2023-02-05T23:01:45.098Z,4.98
2023-02-05T23:04:12.302Z,5.34
2023-02-05T23:06:40.628Z,5.07
2023-02-05T23:09:10.021Z,4.94
2023-02-05T23:11:37.384Z,5.14
2023-02-05T23:14:04.932Z,4.78
2023-02-05T23:16:33.602Z,5.17
2023-02-05T23:19:01.663Z,5.11
2023-02-05T23:21:29.722Z,5.30
2023-02-05T23:23:57.276Z,5.53
2023-02-05T23:26:28.518Z,5.35
2023-02-05T23:28:55.930Z,5.16
2023-02-05T23:31:23.892Z,5.00
2023-02-05T23:33:51.240Z,4.76
2023-02-05T23:36:18.731Z,4.43
2023-02-05T23:38:46.295Z,4.24
2023-02-05T23:41:13.440Z,4.16
2023-02-05T23:43:40.655Z,4.28
2023-02-05T23:46:08.203Z,4.58
2023-02-05T23:48:35.547Z,4.60
2023-02-05T23:51:02.767Z,4.81
2023-02-05T23:53:30.216Z,4.67
2023-02-05T23:55:57.365Z,4.84
2023-02-05T23:58:25.998Z,4.76
